Time;durP1;ratioP1;P1;durP2;ratioP2;P2;SDS_P1;SDS_P2;PMS_P1;PMS_P2;Temp;Humidity;BMP_temperature;BMP_pressure;BME280_temperature;BME280_humidity;BME280_pressure;Samples;Min_cycle;Max_cycle;Signal;HPM_P1;HPM_P2
2022/06/17 00:01:25;;;;;;;26.00;6.97;;;19.20;17.10;;;;;;5007065;28;20472;-69
2022/06/17 00:03:52;;;;;;;25.50;6.57;;;19.10;17.40;;;;;;5006722;28;21008;-68
2022/06/17 00:06:20;;;;;;;23.37;6.77;;;19.00;17.80;;;;;;5006447;28;21023;-68
2022/06/17 00:08:51;;;;;;;24.13;6.50;;;18.90;18.00;;;;;;5007200;28;20467;-68
2022/06/17 00:11:24;;;;;;;24.27;5.70;;;18.90;18.20;;;;;;5007945;28;20952;-69
2022/06/17 00:13:51;;;;;;;24.80;6.60;;;18.80;18.40;;;;;;5008264;28;20866;-68
2022/06/17 00:16:20;;;;;;;23.57;6.40;;;18.70;18.70;;;;;;5007602;28;20463;-68
2022/06/17 00:18:47;;;;;;;24.80;6.90;;;18.60;18.90;;;;;;5006881;28;20491;-68
2022/06/17 00:21:20;;;;;;;22.90;5.97;;;18.60;18.80;;;;;;5007289;28;20998;-69
2022/06/17 00:23:47;;;;;;;25.57;7.40;;;18.60;18.80;;;;;;5007414;28;20468;-69
2022/06/17 00:26:14;;;;;;;24.93;7.90;;;18.50;18.70;;;;;;5007899;28;20623;-68
2022/06/17 00:28:42;;;;;;;26.97;8.13;;;18.50;18.90;;;;;;5007112;28;20471;-68
2022/06/17 00:31:09;;;;;;;28.63;9.07;;;18.50;19.30;;;;;;5007467;28;20999;-68
2022/06/17 00:33:36;;;;;;;24.93;7.73;;;18.50;19.50;;;;;;5007081;28;20459;-68
2022/06/17 00:36:04;;;;;;;23.67;6.87;;;18.40;19.40;;;;;;5008036;28;20460;-68
2022/06/17 00:38:33;;;;;;;24.10;6.90;;;18.30;19.30;;;;;;5005839;28;20855;-69
2022/06/17 00:41:13;;;;;;;25.57;7.13;;;18.30;19.20;;;;;;5007776;28;20948;-68
2022/06/17 00:43:40;;;;;;;24.87;6.13;;;18.30;19.30;;;;;;5007264;28;20557;-68
2022/06/17 00:46:16;;;;;;;23.83;7.10;;;18.40;18.80;;;;;;5007298;28;20470;-69
2022/06/17 00:48:50;;;;;;;25.43;6.83;;;18.40;19.30;;;;;;5007172;28;20467;-69
2022/06/17 00:51:22;;;;;;;26.50;7.60;;;18.40;19.20;;;;;;5007368;28;20492;-68
2022/06/17 00:53:54;;;;;;;26.50;6.70;;;18.30;19.10;;;;;;5006579;28;20436;-68
2022/06/17 00:56:25;;;;;;;25.70;7.50;;;18.30;19.20;;;;;;5007692;28;20455;-71
2022/06/17 01:02:15;;;;;;;26.57;6.77;;;18.30;19.30;;;;;;4986675;28;20495;-69
2022/06/17 01:04:48;;;;;;;29.83;7.10;;;18.20;19.00;;;;;;4987183;28;20784;-68
2022/06/17 01:07:19;;;;;;;25.80;7.17;;;18.20;19.20;;;;;;4989468;28;20499;-68
2022/06/17 01:09:58;;;;;;;28.10;6.10;;;18.20;19.30;;;;;;5001013;28;20461;-68
2022/06/17 01:12:29;;;;;;;25.30;7.37;;;18.20;19.20;;;;;;4987110;28;20736;-68
2022/06/17 01:14:58;;;;;;;26.53;7.90;;;18.20;19.20;;;;;;5004923;28;20452;-68
2022/06/17 01:17:27;;;;;;;25.47;7.13;;;18.10;19.60;;;;;;5009344;28;20487;-68
2022/06/17 01:19:57;;;;;;;24.20;7.03;;;18.10;19.60;;;;;;5008020;28;20464;-68
2022/06/17 01:22:38;;;;;;;26.53;7.57;;;18.10;19.80;;;;;;4999639;28;20464;-69
2022/06/17 01:25:09;;;;;;;28.47;8.50;;;18.10;20.30;;;;;;4993310;28;20480;-68
2022/06/17 01:27:41;;;;;;;25.57;7.30;;;18.10;19.90;;;;;;4995501;28;20485;-69
2022/06/17 01:30:14;;;;;;;27.00;7.40;;;18.10;20.00;;;;;;5001811;28;20464;-69
2022/06/17 01:32:48;;;;;;;27.03;8.20;;;17.90;20.00;;;;;;5000416;28;20455;-68
2022/06/17 01:35:15;;;;;;;26.50;7.50;;;17.90;20.20;;;;;;5003824;28;20483;-68
2022/06/17 01:37:44;;;;;;;27.80;7.43;;;17.80;20.10;;;;;;5007730;28;20476;-68
2022/06/17 01:40:13;;;;;;;25.70;7.20;;;17.70;20.10;;;;;;5010059;28;20463;-69
2022/06/17 01:42:40;;;;;;;26.00;6.07;;;17.70;20.00;;;;;;5010113;28;20467;-68
2022/06/17 01:45:08;;;;;;;27.70;6.50;;;17.70;19.90;;;;;;5007319;28;20882;-68
2022/06/17 01:47:37;;;;;;;26.50;6.70;;;17.70;19.80;;;;;;5007071;28;20996;-68
2022/06/17 01:50:08;;;;;;;29.83;6.47;;;17.70;20.00;;;;;;5005248;28;20472;-68
2022/06/17 01:52:39;;;;;;;28.63;7.37;;;17.60;19.90;;;;;;5005423;28;20461;-68
2022/06/17 01:55:12;;;;;;;25.63;6.90;;;17.60;19.90;;;;;;5001993;28;20486;-68
2022/06/17 01:57:43;;;;;;;27.67;5.60;;;17.60;19.80;;;;;;5009992;28;20487;-68
2022/06/17 02:00:14;;;;;;;24.97;6.53;;;17.50;19.80;;;;;;5005785;28;20542;-68
2022/06/17 02:02:43;;;;;;;26.40;6.57;;;17.50;20.10;;;;;;5009313;28;20801;-68
2022/06/17 02:05:14;;;;;;;24.63;7.30;;;17.40;20.30;;;;;;5007011;28;20483;-68
2022/06/17 02:07:47;;;;;;;27.77;7.30;;;17.40;20.50;;;;;;4989216;28;20476;-68
2022/06/17 02:10:15;;;;;;;30.30;6.50;;;17.40;20.70;;;;;;4990600;28;20444;-68
2022/06/17 02:12:42;;;;;;;26.07;8.10;;;17.30;20.90;;;;;;4990091;28;20455;-68
2022/06/17 02:15:11;;;;;;;25.80;7.03;;;17.20;20.80;;;;;;4988932;28;21079;-69
2022/06/17 02:17:41;;;;;;;26.97;6.77;;;17.20;21.00;;;;;;5002423;28;21030;-68
2022/06/17 02:20:12;;;;;;;26.03;6.83;;;17.20;20.90;;;;;;5008761;28;20539;-68
2022/06/17 02:22:39;;;;;;;28.40;6.70;;;17.10;20.70;;;;;;5009492;28;20462;-68
2022/06/17 02:25:09;;;;;;;27.10;6.93;;;17.10;20.70;;;;;;5009805;28;20483;-68
2022/06/17 02:27:38;;;;;;;26.03;7.60;;;17.00;20.80;;;;;;5007166;28;20623;-69
2022/06/17 02:30:07;;;;;;;25.77;7.77;;;17.00;21.10;;;;;;5009073;28;20456;-68
2022/06/17 02:32:35;;;;;;;26.30;7.60;;;16.90;21.30;;;;;;5009035;28;20554;-68
2022/06/17 02:35:05;;;;;;;24.70;7.07;;;16.90;21.20;;;;;;5009484;28;20463;-68
2022/06/17 02:37:32;;;;;;;29.17;7.13;;;16.90;21.60;;;;;;5007958;28;20483;-68
2022/06/17 02:40:03;;;;;;;26.13;7.83;;;16.90;21.70;;;;;;5006391;28;20460;-68
2022/06/17 02:42:33;;;;;;;25.23;7.60;;;16.90;21.90;;;;;;5008495;28;20825;-68
2022/06/17 02:45:05;;;;;;;27.00;7.40;;;16.80;22.50;;;;;;5008772;28;20491;-68
2022/06/17 02:47:33;;;;;;;26.13;7.27;;;16.80;22.40;;;;;;5009390;28;20769;-68
2022/06/17 02:53:27;;;;;;;26.53;8.30;;;16.60;23.30;;;;;;5009071;28;20439;-68
2022/06/17 02:55:54;;;;;;;25.70;7.83;;;16.50;23.80;;;;;;5008565;28;20455;-68
2022/06/17 02:58:33;;;;;;;28.00;7.90;;;16.50;23.60;;;;;;5007244;28;20721;-68
2022/06/17 03:01:01;;;;;;;27.53;8.10;;;16.40;23.70;;;;;;5007947;28;20476;-67
2022/06/17 03:03:29;;;;;;;23.93;7.67;;;16.40;23.60;;;;;;5008001;28;20750;-68
2022/06/17 03:05:57;;;;;;;25.87;7.60;;;16.40;23.80;;;;;;5008257;28;20494;-68
2022/06/17 03:08:26;;;;;;;24.50;7.97;;;16.40;24.00;;;;;;5007178;28;20494;-67
2022/06/17 03:10:56;;;;;;;27.20;8.33;;;16.40;24.10;;;;;;5007926;28;20846;-68
2022/06/17 03:13:29;;;;;;;25.67;7.70;;;16.40;24.30;;;;;;5008129;28;20464;-68
2022/06/17 03:16:02;;;;;;;28.60;8.10;;;16.40;23.80;;;;;;5008514;28;20440;-68
2022/06/17 03:18:29;;;;;;;28.50;8.00;;;16.40;23.90;;;;;;5007966;28;20932;-67
2022/06/17 03:20:58;;;;;;;27.50;8.00;;;16.40;23.60;;;;;;5005992;28;20464;-68
2022/06/17 03:23:29;;;;;;;27.00;7.97;;;16.40;23.60;;;;;;5007399;28;20813;-68
2022/06/17 03:26:01;;;;;;;27.10;8.20;;;16.30;23.50;;;;;;5008706;28;20518;-68
2022/06/17 03:28:30;;;;;;;25.70;8.10;;;16.30;23.90;;;;;;5008684;28;20471;-68
2022/06/17 03:31:02;;;;;;;28.27;8.37;;;16.30;23.70;;;;;;5007872;28;20474;-67
2022/06/17 03:33:34;;;;;;;25.47;7.50;;;16.30;23.70;;;;;;5006739;28;20817;-67
2022/06/17 03:36:08;;;;;;;25.70;7.63;;;16.30;23.60;;;;;;5008561;28;20624;-67
2022/06/17 03:38:41;;;;;;;25.93;7.50;;;16.30;23.70;;;;;;5007460;28;20448;-67
2022/06/17 03:41:13;;;;;;;25.70;7.70;;;16.30;24.00;;;;;;5008020;28;20976;-68
2022/06/17 03:43:46;;;;;;;25.50;7.70;;;16.40;23.70;;;;;;5007661;28;20920;-67
2022/06/17 03:46:14;;;;;;;25.93;7.20;;;16.40;23.60;;;;;;5006648;28;20510;-67
2022/06/17 03:48:46;;;;;;;29.77;7.87;;;16.40;23.60;;;;;;5008191;28;20456;-68
2022/06/17 03:51:17;;;;;;;31.10;7.93;;;16.40;23.80;;;;;;5008219;28;20452;-67
2022/06/17 03:53:45;;;;;;;26.10;7.20;;;16.40;24.10;;;;;;5007795;28;20455;-68
2022/06/17 03:59:36;;;;;;;27.80;7.77;;;16.30;24.30;;;;;;5007405;28;20954;-67
2022/06/17 04:02:09;;;;;;;26.70;7.53;;;16.40;23.60;;;;;;5006402;28;20582;-68
2022/06/17 04:04:46;;;;;;;28.00;7.80;;;16.40;23.50;;;;;;5006430;28;20448;-67
2022/06/17 04:07:13;;;;;;;27.07;6.93;;;16.40;24.10;;;;;;5006211;28;20475;-68
2022/06/17 04:09:44;;;;;;;29.03;8.73;;;16.40;24.10;;;;;;5007495;28;20456;-68
2022/06/17 04:12:21;;;;;;;25.60;7.53;;;16.40;24.20;;;;;;5007589;28;20456;-68
2022/06/17 04:14:53;;;;;;;27.50;7.80;;;16.40;24.40;;;;;;5007365;28;20951;-67
2022/06/17 04:17:31;;;;;;;27.07;7.40;;;16.40;24.60;;;;;;5006131;28;20842;-68
2022/06/17 04:20:18;;;;;;;27.20;7.40;;;16.40;24.80;;;;;;5008258;28;20450;-67
2022/06/17 04:22:47;;;;;;;26.60;5.90;;;16.40;24.70;;;;;;5007732;28;20841;-67
2022/06/17 04:25:19;;;;;;;27.20;5.87;;;16.40;24.60;;;;;;5007148;28;21011;-68
2022/06/17 04:27:59;;;;;;;28.10;6.70;;;16.50;24.40;;;;;;5006279;28;20492;-69
2022/06/17 04:30:31;;;;;;;28.43;6.47;;;16.60;24.00;;;;;;5007241;28;20483;-68
2022/06/17 04:33:02;;;;;;;27.43;7.00;;;16.90;24.30;;;;;;5007812;28;20547;-68
2022/06/17 04:35:30;;;;;;;28.37;6.17;;;17.70;23.50;;;;;;5007181;28;20507;-68
2022/06/17 04:37:57;;;;;;;29.20;6.30;;;18.60;21.60;;;;;;5006558;28;20487;-68
2022/06/17 04:40:30;;;;;;;28.80;5.60;;;19.50;19.90;;;;;;5007575;28;20840;-68
2022/06/17 04:42:59;;;;;;;29.93;6.03;;;20.50;18.10;;;;;;5007285;28;20905;-68
2022/06/17 04:45:29;;;;;;;30.00;6.20;;;21.30;16.00;;;;;;5007335;28;20490;-68
2022/06/17 04:47:57;;;;;;;30.37;5.60;;;21.60;15.10;;;;;;5005560;28;20487;-68
2022/06/17 04:50:27;;;;;;;30.50;6.30;;;21.90;14.50;;;;;;5009816;28;20463;-68
2022/06/17 04:52:55;;;;;;;31.17;5.40;;;22.10;14.80;;;;;;5009725;28;20976;-68
2022/06/17 04:55:25;;;;;;;32.23;5.73;;;22.50;14.20;;;;;;5011440;28;20884;-68
2022/06/17 04:57:52;;;;;;;29.30;5.50;;;22.90;13.20;;;;;;5011025;28;20488;-68
2022/06/17 05:00:22;;;;;;;30.87;5.93;;;23.20;13.10;;;;;;5010661;28;20478;-68
2022/06/17 05:02:49;;;;;;;30.37;5.90;;;23.90;12.50;;;;;;5009769;28;20476;-68
2022/06/17 05:05:25;;;;;;;28.37;5.60;;;24.40;11.10;;;;;;5011748;28;20485;-68
2022/06/17 05:07:55;;;;;;;30.10;6.30;;;24.30;10.70;;;;;;5010747;28;20486;-68
2022/06/17 05:10:26;;;;;;;29.30;5.60;;;24.10;10.40;;;;;;5010775;28;20451;-68
2022/06/17 05:12:58;;;;;;;31.67;6.17;;;24.00;10.70;;;;;;5009258;28;20606;-68
2022/06/17 05:15:25;;;;;;;29.60;5.90;;;24.00;11.10;;;;;;5010892;28;20474;-68
2022/06/17 05:17:54;;;;;;;30.87;5.90;;;24.50;10.80;;;;;;5010847;28;20570;-68
2022/06/17 05:20:22;;;;;;;29.73;5.60;;;25.20;9.10;;;;;;5010567;28;20456;-68
2022/06/17 05:22:55;;;;;;;30.17;6.20;;;25.60;8.60;;;;;;5008996;28;20558;-68
2022/06/17 05:25:24;;;;;;;30.83;5.87;;;26.30;7.30;;;;;;5010715;28;21035;-68
2022/06/17 05:27:51;;;;;;;29.80;5.27;;;26.80;6.30;;;;;;5011077;28;20515;-68
2022/06/17 05:30:18;;;;;;;28.83;5.20;;;27.40;6.10;;;;;;5009654;28;20474;-68
2022/06/17 05:32:48;;;;;;;29.23;4.97;;;28.20;6.00;;;;;;5009525;28;20466;-68
2022/06/17 05:35:15;;;;;;;29.17;4.77;;;28.70;3.90;;;;;;5009394;28;20948;-68
2022/06/17 05:37:42;;;;;;;31.00;5.10;;;29.00;4.00;;;;;;5010472;28;20490;-68
2022/06/17 05:40:12;;;;;;;32.17;4.80;;;29.50;3.50;;;;;;5011065;28;20455;-68
2022/06/17 05:42:40;;;;;;;31.73;5.27;;;30.20;2.40;;;;;;5010250;28;20471;-68
2022/06/17 05:45:09;;;;;;;31.40;5.40;;;31.00;1.60;;;;;;5008615;28;20475;-68
2022/06/17 05:47:35;;;;;;;31.33;5.00;;;31.90;1.00;;;;;;5010036;28;20701;-68
2022/06/17 05:50:02;;;;;;;28.57;4.60;;;33.00;1.00;;;;;;5009985;28;21000;-68
2022/06/17 05:52:29;;;;;;;27.83;4.50;;;33.60;1.00;;;;;;5009961;28;21008;-68
2022/06/17 05:55:00;;;;;;;26.70;4.57;;;33.30;1.00;;;;;;5008862;28;20857;-68
2022/06/17 05:57:28;;;;;;;32.33;5.73;;;33.70;1.00;;;;;;5010148;28;20484;-68
2022/06/17 06:00:17;;;;;;;28.93;5.00;;;35.00;1.00;;;;;;5009838;28;20672;-68
2022/06/17 06:02:45;;;;;;;30.10;5.53;;;36.60;1.00;;;;;;5009021;28;21003;-68
2022/06/17 06:05:14;;;;;;;32.00;4.80;;;37.80;1.00;;;;;;5008864;28;20460;-69
2022/06/17 06:07:41;;;;;;;26.23;4.10;;;38.50;1.00;;;;;;5009721;28;20479;-69
2022/06/17 06:10:09;;;;;;;38.10;5.37;;;39.10;1.00;;;;;;5010102;28;20465;-69
2022/06/17 06:15:22;;;;;;;26.60;5.03;;;40.00;1.00;;;;;;4996925;28;20971;-69
2022/06/17 06:20:17;;;;;;;27.20;3.93;;;41.50;1.00;;;;;;4998944;28;20643;-69
2022/06/17 06:22:47;;;;;;;24.67;3.97;;;42.10;1.00;;;;;;4989297;28;20495;-69
2022/06/17 06:25:15;;;;;;;23.70;3.50;;;42.70;1.00;;;;;;4989770;28;20554;-69
2022/06/17 06:27:44;;;;;;;27.67;3.90;;;43.40;1.00;;;;;;5007250;28;20452;-69
2022/06/17 06:30:18;;;;;;;25.00;3.67;;;43.80;1.00;;;;;;4988312;28;20976;-70
2022/06/17 06:32:55;;;;;;;25.00;4.00;;;44.10;1.00;;;;;;4989495;28;20479;-69
2022/06/17 06:35:24;;;;;;;27.23;4.40;;;44.00;1.00;;;;;;4986417;28;20888;-69
2022/06/17 06:37:51;;;;;;;23.63;3.87;;;43.80;1.00;;;;;;4976800;28;20461;-69
2022/06/17 06:40:19;;;;;;;24.40;3.47;;;43.70;1.00;;;;;;4973530;28;20538;-69
2022/06/17 06:42:51;;;;;;;23.50;3.53;;;43.90;1.00;;;;;;4972819;28;20941;-69
2022/06/17 06:45:22;;;;;;;23.97;4.17;;;43.80;1.00;;;;;;4975045;28;20465;-69
2022/06/17 06:47:51;;;;;;;23.57;3.70;;;43.50;1.00;;;;;;4978598;28;20547;-69
2022/06/17 06:50:21;;;;;;;23.73;3.43;;;42.80;1.00;;;;;;4980348;28;20587;-69
2022/06/17 06:52:48;;;;;;;24.37;3.80;;;42.80;1.00;;;;;;4976579;28;20458;-69
2022/06/17 06:55:16;;;;;;;23.70;3.97;;;43.20;1.00;;;;;;4969586;28;20458;-69
2022/06/17 06:57:45;;;;;;;24.00;3.80;;;43.10;1.00;;;;;;4978513;28;20977;-69
2022/06/17 07:00:17;;;;;;;24.10;3.23;;;43.00;1.00;;;;;;4986839;28;20467;-70
2022/06/17 07:02:44;;;;;;;23.87;2.67;;;43.00;1.00;;;;;;4973291;28;20480;-69
2022/06/17 07:05:11;;;;;;;24.60;3.07;;;43.40;1.00;;;;;;4976836;28;20461;-73
2022/06/17 07:07:38;;;;;;;23.80;3.87;;;43.90;1.00;;;;;;4976691;28;20482;-69
2022/06/17 07:10:06;;;;;;;22.83;3.80;;;44.80;1.00;;;;;;4989042;28;20477;-69
2022/06/17 07:12:33;;;;;;;23.50;3.43;;;45.10;1.00;;;;;;4976410;28;20473;-69
2022/06/17 07:15:00;;;;;;;23.10;3.33;;;44.80;1.00;;;;;;4972918;28;20568;-69
2022/06/17 07:17:28;;;;;;;24.07;3.40;;;44.60;1.00;;;;;;4971345;28;20461;-69
2022/06/17 07:19:55;;;;;;;22.57;3.40;;;45.10;1.00;;;;;;4987605;28;20484;-71
2022/06/17 07:22:22;;;;;;;29.00;3.50;;;45.70;1.00;;;;;;4976409;28;20456;-70
2022/06/17 07:24:49;;;;;;;23.60;3.80;;;46.10;1.00;;;;;;4974540;28;20466;-69
2022/06/17 07:27:16;;;;;;;23.47;3.60;;;46.00;1.00;;;;;;4972878;28;20493;-69
2022/06/17 07:29:43;;;;;;;22.90;3.33;;;46.00;1.00;;;;;;4984301;28;20481;-69
2022/06/17 07:32:09;;;;;;;24.50;3.93;;;46.30;1.00;;;;;;4987054;28;20477;-70
2022/06/17 07:34:37;;;;;;;21.97;3.57;;;47.10;1.00;;;;;;4988807;28;20471;-70
2022/06/17 07:39:55;;;;;;;22.57;3.20;;;48.00;1.00;;;;;;4987472;28;20479;-70
2022/06/17 07:42:22;;;;;;;21.73;3.70;;;48.90;1.00;;;;;;4980318;28;20500;-70
2022/06/17 07:44:50;;;;;;;22.13;3.63;;;49.60;1.00;;;;;;4984726;28;20538;-70
2022/06/17 07:47:19;;;;;;;22.43;3.57;;;50.80;1.00;;;;;;4977870;28;21046;-70
2022/06/17 07:49:47;;;;;;;23.60;3.10;;;51.60;1.00;;;;;;4980950;28;20485;-70
2022/06/17 07:52:14;;;;;;;20.60;3.20;;;51.50;1.00;;;;;;4981029;28;20476;-70
2022/06/17 07:54:41;;;;;;;21.20;3.03;;;51.40;1.00;;;;;;4984941;28;20487;-70
2022/06/17 07:57:08;;;;;;;21.47;4.03;;;52.00;1.00;;;;;;4982286;28;21092;-70
2022/06/17 07:59:35;;;;;;;20.67;2.67;;;52.30;1.00;;;;;;4983608;28;20996;-70
2022/06/17 08:02:01;;;;;;;20.10;2.60;;;52.40;1.00;;;;;;4980963;28;21187;-70
2022/06/17 08:04:29;;;;;;;21.90;3.20;;;52.20;1.00;;;;;;4978314;28;20461;-70
2022/06/17 08:06:57;;;;;;;19.87;2.20;;;52.50;1.00;;;;;;4988757;28;21184;-70
2022/06/17 08:09:25;;;;;;;20.43;3.00;;;53.20;1.00;;;;;;4987308;28;20487;-70
2022/06/17 08:11:51;;;;;;;20.70;3.00;;;53.30;1.00;;;;;;4989386;28;20468;-70
2022/06/17 08:14:18;;;;;;;20.63;2.83;;;53.40;1.00;;;;;;4989621;28;20456;-70
2022/06/17 08:16:46;;;;;;;21.43;3.23;;;53.40;1.00;;;;;;4986350;28;20527;-69
2022/06/17 08:19:12;;;;;;;20.17;2.50;;;53.60;1.00;;;;;;4984755;28;20493;-69
2022/06/17 08:21:39;;;;;;;20.87;3.00;;;53.90;1.00;;;;;;4974907;28;20826;-69
2022/06/17 08:24:08;;;;;;;20.70;2.70;;;54.00;1.00;;;;;;4982390;28;20942;-69
2022/06/17 08:26:35;;;;;;;19.57;3.17;;;54.00;1.00;;;;;;4978912;28;20491;-69
2022/06/17 08:29:02;;;;;;;19.50;2.83;;;54.30;1.00;;;;;;4979765;28;20995;-69
2022/06/17 08:31:29;;;;;;;21.30;2.70;;;54.80;1.00;;;;;;4977791;28;20477;-69
2022/06/17 08:33:55;;;;;;;19.87;2.77;;;55.00;1.00;;;;;;4974682;28;20472;-69
2022/06/17 08:36:25;;;;;;;20.70;3.37;;;55.20;1.00;;;;;;4975504;28;20480;-69
2022/06/17 08:38:54;;;;;;;20.17;2.90;;;55.50;1.00;;;;;;4985289;28;20849;-69
2022/06/17 08:41:30;;;;;;;20.83;3.43;;;55.80;1.00;;;;;;4987476;28;20456;-69
2022/06/17 08:44:13;;;;;;;20.40;2.97;;;55.40;1.00;;;;;;4992608;28;20456;-69
2022/06/17 08:46:56;;;;;;;21.30;2.50;;;55.30;1.00;;;;;;4991855;28;20996;-69
2022/06/17 08:49:52;;;;;;;19.10;2.73;;;55.80;1.00;;;;;;4986744;28;20492;-69
2022/06/17 08:52:42;;;;;;;18.53;2.30;;;56.30;1.00;;;;;;4972162;28;20459;-69
2022/06/17 08:55:17;;;;;;;19.67;2.63;;;56.60;1.00;;;;;;4972415;28;20539;-69
2022/06/17 08:57:59;;;;;;;19.03;2.40;;;57.10;1.00;;;;;;4971981;28;20991;-69
2022/06/17 09:00:34;;;;;;;20.23;2.77;;;57.30;1.00;;;;;;4976255;28;20975;-70
2022/06/17 09:03:27;;;;;;;19.00;2.60;;;57.60;1.00;;;;;;4991507;28;20471;-69
2022/06/17 09:06:07;;;;;;;19.53;3.00;;;57.40;1.00;;;;;;4990911;28;20530;-70
2022/06/17 09:08:46;;;;;;;21.50;2.30;;;57.00;1.00;;;;;;4991927;28;20482;-69
2022/06/17 09:11:20;;;;;;;21.33;2.60;;;56.50;1.00;;;;;;4990501;28;20460;-70
2022/06/17 09:14:03;;;;;;;19.00;2.33;;;56.10;1.00;;;;;;4992013;28;20444;-70
2022/06/17 09:16:39;;;;;;;19.17;2.40;;;55.80;1.00;;;;;;4991661;28;20456;-70
2022/06/17 09:19:08;;;;;;;21.90;2.50;;;55.00;1.00;;;;;;4991783;28;21058;-69
2022/06/17 09:21:43;;;;;;;20.87;2.37;;;53.60;1.00;;;;;;4989587;28;20679;-69
2022/06/17 09:24:16;;;;;;;21.03;3.03;;;51.70;1.00;;;;;;4991811;28;20443;-69
2022/06/17 09:26:49;;;;;;;21.67;2.87;;;49.70;1.00;;;;;;4990787;28;20488;-69
2022/06/17 09:29:24;;;;;;;22.10;3.27;;;47.90;1.00;;;;;;4991647;28;20510;-69
2022/06/17 09:31:56;;;;;;;22.03;3.23;;;46.00;1.00;;;;;;4989480;28;20471;-69
2022/06/17 09:34:28;;;;;;;24.87;3.00;;;44.40;1.00;;;;;;4987421;28;20456;-69
2022/06/17 09:37:00;;;;;;;22.30;2.93;;;43.20;1.00;;;;;;4990061;28;20449;-69
2022/06/17 09:39:32;;;;;;;22.70;2.80;;;42.00;1.00;;;;;;4991119;28;20487;-69
2022/06/17 09:42:04;;;;;;;23.80;3.07;;;40.80;1.00;;;;;;4989798;28;20473;-69
2022/06/17 09:44:38;;;;;;;23.97;2.90;;;39.80;1.00;;;;;;4990247;28;20460;-69
2022/06/17 09:47:19;;;;;;;28.13;3.73;;;38.90;1.00;;;;;;4990912;28;20484;-68
2022/06/17 09:49:52;;;;;;;23.90;3.33;;;38.10;1.00;;;;;;4990184;28;20499;-68
2022/06/17 09:52:25;;;;;;;24.23;3.40;;;37.50;1.00;;;;;;4989949;28;20461;-68
2022/06/17 09:54:56;;;;;;;23.97;3.60;;;36.90;1.00;;;;;;4990411;28;20728;-68
2022/06/17 09:57:29;;;;;;;23.97;3.20;;;36.30;1.00;;;;;;4991023;28;20469;-68
2022/06/17 10:00:02;;;;;;;23.97;3.50;;;35.70;1.00;;;;;;4990915;28;20571;-68
2022/06/17 10:02:35;;;;;;;24.53;4.20;;;35.30;1.00;;;;;;4989284;28;20481;-68
2022/06/17 10:05:15;;;;;;;25.80;3.93;;;35.00;1.00;;;;;;4975365;28;20483;-68
2022/06/17 10:07:47;;;;;;;25.10;3.70;;;34.70;1.00;;;;;;4984265;28;20911;-68
2022/06/17 10:10:23;;;;;;;26.20;3.67;;;34.50;1.00;;;;;;4990843;28;20468;-68
2022/06/17 10:13:11;;;;;;;24.90;4.53;;;34.20;1.00;;;;;;4987470;28;20452;-68
2022/06/17 10:18:31;;;;;;;27.17;4.80;;;34.10;1.00;;;;;;4989025;28;20452;-68
2022/06/17 10:18:42;;;;;;;26.43;4.97;;;33.90;1.00;;;;;;5004297;23;20501;-62
2022/06/17 10:21:42;;;;;;;25.93;4.20;;;33.60;1.00;;;;;;4983516;28;20476;-62
2022/06/17 10:24:17;;;;;;;27.27;4.03;;;33.50;1.00;;;;;;4905828;29;20584;-61
2022/06/17 10:27:00;;;;;;;25.17;3.60;;;33.40;1.00;;;;;;4966169;28;20500;-62
2022/06/17 10:29:46;;;;;;;24.90;3.53;;;33.10;1.00;;;;;;4981730;28;20476;-63
2022/06/17 10:32:14;;;;;;;25.87;3.60;;;32.80;1.00;;;;;;4981333;28;20484;-61
2022/06/17 10:34:45;;;;;;;26.10;4.00;;;32.40;1.00;;;;;;4978550;28;20468;-62
2022/06/17 10:37:13;;;;;;;27.87;3.90;;;32.30;1.00;;;;;;4980589;28;20470;-61
2022/06/17 10:39:41;;;;;;;26.40;4.60;;;32.10;1.00;;;;;;4985267;28;20531;-62
2022/06/17 10:42:14;;;;;;;25.70;3.70;;;32.00;1.00;;;;;;4980540;28;20964;-61
2022/06/17 10:44:44;;;;;;;25.70;4.00;;;31.60;1.00;;;;;;4982518;28;20473;-64
2022/06/17 10:47:23;;;;;;;24.80;3.53;;;31.40;1.00;;;;;;4982381;28;20483;-67
2022/06/17 10:49:54;;;;;;;25.13;3.90;;;31.30;1.00;;;;;;4986058;28;20481;-62
2022/06/17 10:52:37;;;;;;;26.90;4.23;;;31.30;1.00;;;;;;4982443;28;20480;-62
2022/06/17 10:55:04;;;;;;;26.30;3.70;;;31.10;1.00;;;;;;4983729;28;20465;-60
2022/06/17 10:57:37;;;;;;;26.00;3.30;;;31.00;1.00;;;;;;4983703;28;21184;-62
2022/06/17 11:00:24;;;;;;;25.43;3.10;;;30.70;1.00;;;;;;4977132;28;20464;-62
2022/06/17 11:02:52;;;;;;;25.80;3.00;;;30.60;1.00;;;;;;4982186;28;20453;-62
2022/06/17 11:05:31;;;;;;;28.00;3.60;;;30.50;1.00;;;;;;4982861;28;20871;-62
2022/06/17 11:07:58;;;;;;;26.00;3.47;;;30.50;1.00;;;;;;4978870;28;20517;-64
2022/06/17 11:10:28;;;;;;;26.30;3.40;;;30.50;1.00;;;;;;4983812;28;20492;-61
2022/06/17 11:12:59;;;;;;;28.43;3.70;;;30.40;1.00;;;;;;4983266;28;20468;-61
2022/06/17 11:15:28;;;;;;;25.47;3.80;;;30.40;1.00;;;;;;4982962;28;21157;-65
2022/06/17 11:18:01;;;;;;;26.50;3.73;;;30.40;1.00;;;;;;4979408;28;20457;-63
2022/06/17 11:20:30;;;;;;;26.70;3.50;;;30.40;1.00;;;;;;4980640;28;20485;-62
2022/06/17 11:23:00;;;;;;;26.20;2.70;;;30.20;1.00;;;;;;4975041;28;20469;-62
2022/06/17 11:25:34;;;;;;;25.40;3.30;;;30.30;1.00;;;;;;4983845;28;20461;-62
2022/06/17 11:28:11;;;;;;;27.07;4.40;;;30.30;1.00;;;;;;4991958;28;20865;-63
2022/06/17 11:30:49;;;;;;;25.77;3.70;;;30.30;1.00;;;;;;4980972;28;20476;-65
2022/06/17 11:33:24;;;;;;;25.73;3.70;;;30.30;1.00;;;;;;4985691;28;20500;-61
2022/06/17 11:36:01;;;;;;;27.03;3.30;;;30.10;1.00;;;;;;4979432;28;20468;-59
2022/06/17 11:38:28;;;;;;;26.17;3.90;;;30.00;1.00;;;;;;4986176;28;20821;-61
2022/06/17 11:40:56;;;;;;;26.93;4.07;;;29.90;1.00;;;;;;4984121;28;20512;-60
2022/06/17 11:43:32;;;;;;;25.77;3.20;;;29.70;1.00;;;;;;4984283;28;20468;-63
2022/06/17 11:46:05;;;;;;;27.23;3.60;;;29.50;1.00;;;;;;4976340;28;20476;-64
2022/06/17 11:48:36;;;;;;;27.70;3.73;;;29.40;1.00;;;;;;4976351;28;20481;-63
2022/06/17 11:51:05;;;;;;;25.47;3.20;;;29.40;1.00;;;;;;4984598;28;20492;-63
2022/06/17 11:53:41;;;;;;;27.70;3.37;;;29.30;1.00;;;;;;4980569;28;20476;-65
2022/06/17 11:56:09;;;;;;;26.03;3.30;;;29.30;1.00;;;;;;4983474;28;20468;-62
2022/06/17 11:58:53;;;;;;;25.87;3.20;;;29.20;1.00;;;;;;4979206;28;20460;-63
2022/06/17 12:01:20;;;;;;;27.47;3.60;;;29.10;1.00;;;;;;4978898;28;20484;-63
2022/06/17 12:03:48;;;;;;;28.27;3.37;;;29.00;1.00;;;;;;4978817;28;20465;-62
2022/06/17 12:06:44;;;;;;;26.70;3.50;;;28.80;1.00;;;;;;4982718;28;20472;-62
2022/06/17 12:09:16;;;;;;;25.93;3.40;;;28.80;1.00;;;;;;4977208;28;20489;-68
2022/06/17 12:11:49;;;;;;;27.70;3.33;;;28.70;1.00;;;;;;4981711;28;20488;-62
2022/06/17 12:14:24;;;;;;;25.20;2.60;;;28.70;1.00;;;;;;4974061;28;20911;-64
2022/06/17 12:16:51;;;;;;;26.60;3.40;;;28.60;1.00;;;;;;4976996;28;20465;-65
2022/06/17 12:19:21;;;;;;;25.23;2.50;;;28.50;1.00;;;;;;4980506;28;20472;-63
2022/06/17 12:22:00;;;;;;;27.13;3.60;;;28.40;1.00;;;;;;4973948;28;20485;-64
2022/06/17 12:24:40;;;;;;;27.07;3.07;;;28.30;1.00;;;;;;4977826;28;21565;-65
2022/06/17 12:27:21;;;;;;;27.57;2.60;;;28.30;1.00;;;;;;4978822;28;21017;-63
2022/06/17 12:29:55;;;;;;;25.33;2.50;;;28.20;1.00;;;;;;4979988;28;20464;-64
2022/06/17 12:32:26;;;;;;;25.27;2.40;;;28.30;1.00;;;;;;4975349;28;20497;-63
2022/06/17 12:35:03;;;;;;;26.07;2.87;;;28.30;1.00;;;;;;4980429;28;20468;-64
2022/06/17 12:37:41;;;;;;;25.30;2.40;;;28.40;1.00;;;;;;4982636;28;20468;-64
2022/06/17 12:40:14;;;;;;;25.53;2.53;;;28.50;1.00;;;;;;4982590;28;20464;-64
2022/06/17 12:42:49;;;;;;;26.20;2.10;;;28.50;1.00;;;;;;4979218;28;20496;-63
2022/06/17 12:45:24;;;;;;;26.80;2.33;;;28.60;1.00;;;;;;4977701;28;20464;-65
2022/06/17 12:48:08;;;;;;;25.60;2.70;;;28.70;1.00;;;;;;4979065;28;20482;-65
2022/06/17 12:53:40;;;;;;;25.57;2.10;;;28.70;1.00;;;;;;4981530;28;20463;-63
2022/06/17 12:56:23;;;;;;;25.70;2.60;;;28.80;1.00;;;;;;4979693;28;20460;-62
2022/06/17 12:59:30;;;;;;;25.47;2.67;;;28.70;1.00;;;;;;4975013;28;20635;-63
2022/06/17 13:02:07;;;;;;;26.07;2.33;;;28.70;1.00;;;;;;4978538;28;20505;-63
2022/06/17 13:05:06;;;;;;;27.10;3.23;;;28.60;1.00;;;;;;4972518;28;20564;-64
2022/06/17 13:07:46;;;;;;;25.40;2.00;;;28.70;1.00;;;;;;4986561;28;20488;-64
2022/06/17 13:13:26;;;;;;;25.57;2.20;;;28.70;1.00;;;;;;4966452;28;20476;-64
2022/06/17 13:15:56;;;;;;;25.30;2.43;;;28.60;1.00;;;;;;4980843;28;20467;-65
2022/06/17 13:18:28;;;;;;;25.50;2.43;;;28.60;1.00;;;;;;4981198;28;20905;-63
2022/06/17 13:21:02;;;;;;;25.43;2.90;;;28.50;1.00;;;;;;4983879;28;20491;-64
2022/06/17 13:23:39;;;;;;;25.43;2.20;;;28.50;1.00;;;;;;4984337;28;20463;-64
2022/06/17 13:26:11;;;;;;;26.20;2.27;;;28.60;1.00;;;;;;4982858;28;20475;-65
2022/06/17 13:28:43;;;;;;;26.30;2.30;;;28.60;1.00;;;;;;4985131;28;20484;-64
2022/06/17 13:31:15;;;;;;;25.00;2.00;;;28.70;1.00;;;;;;4985613;28;20485;-63